»·PEaware :: N375PT KDEN-KCPR

N375PT :: KDEN-KCPR

FLIGHT INFORMATION

Flight Status: Arrived
Operator: Privately registered:
United States
More flights under this callsign
Pilot: Joe C. (32102)
Aircraft: SOCATA TBM-900
(TBM9)
More flights by this aircraft type
Origin: KDEN Denver Intl
United States
Destination: KCPR Natrona Co Intl
United States
More flights between these airports :: More routes between these airports
Route: YELLO4 MBW DDY
File this flight plan on PilotEdge
Remarks:
Altitude:
(Current/Filed)
22,000ft
Speed:
(Current/Filed)
298kts
Departed: 26-Jan-21 04:27 PM
Arrived: 26-Jan-21 05:17 PM
Distance/Time
Traveled:
200nm/0:50
Distance/Time
To Go:
Arrived

Flight Plot

Page will automatically refresh every two minutes.

Flight plan parsing failed; only flown route is shown


Map Options




Map Legend


Flown Route
Filed Route
Departure Airport
Arrival Airport
Navaid (VOR, NDB)
Fix

Horizontal Profiles

Position Reports

Time Latitude Longitude Heading Altitude Ground
Speed
26-Jan-21 15:39 39.838268 -104.664825 0 5437ft 0kts
26-Jan-21 15:40 39.838268 -104.664825 0 5437ft 0kts
26-Jan-21 15:41 39.838268 -104.664825 0 5437ft 0kts
26-Jan-21 15:42 39.838268 -104.664825 0 5437ft 0kts
26-Jan-21 15:43 39.838268 -104.664825 0 5437ft 0kts
26-Jan-21 15:44 39.838268 -104.664825 0 5437ft 0kts
26-Jan-21 15:45 39.838268 -104.664825 0 5437ft 0kts
26-Jan-21 15:46 39.838268 -104.664825 0 5437ft 0kts
26-Jan-21 15:47 39.838268 -104.664825 0 5437ft 0kts
26-Jan-21 15:48 39.838268 -104.664825 0 5437ft 0kts
26-Jan-21 15:49 39.838268 -104.664825 0 5437ft 0kts
26-Jan-21 15:50 39.838268 -104.664825 0 5437ft 0kts
26-Jan-21 15:51 39.838268 -104.664825 0 5437ft 0kts
26-Jan-21 15:52 39.838268 -104.664825 0 5437ft 0kts
26-Jan-21 15:53 39.838268 -104.664825 0 5437ft 0kts
26-Jan-21 15:54 39.838268 -104.664825 0 5437ft 0kts
26-Jan-21 15:55 39.838268 -104.664825 0 5437ft 0kts
26-Jan-21 15:56 39.838268 -104.664825 0 5437ft 0kts
26-Jan-21 15:57 39.838268 -104.664825 0 5437ft 0kts
26-Jan-21 15:58 39.838268 -104.664825 0 5437ft 0kts
26-Jan-21 15:59 39.838268 -104.664825 0 5437ft 0kts
26-Jan-21 16:00 39.838268 -104.664825 0 5437ft 0kts
26-Jan-21 16:01 39.838268 -104.664825 0 5437ft 0kts
26-Jan-21 16:02 39.838268 -104.664825 0 5437ft 0kts
26-Jan-21 16:03 39.838268 -104.664825 0 5437ft 0kts
26-Jan-21 16:04 39.838268 -104.664825 0 5437ft 0kts
26-Jan-21 16:05 39.838268 -104.664825 0 5437ft 0kts
26-Jan-21 16:06 39.838268 -104.664825 0 5437ft 0kts
26-Jan-21 16:07 39.838268 -104.664825 0 5437ft 0kts
26-Jan-21 16:08 39.838268 -104.664825 0 5437ft 0kts
26-Jan-21 16:09 39.838268 -104.664825 0 5437ft 0kts
26-Jan-21 16:10 39.838268 -104.664825 0 5437ft 0kts
26-Jan-21 16:11 39.838268 -104.664825 0 5437ft 0kts
26-Jan-21 16:12 39.838268 -104.664825 0 5437ft 0kts
26-Jan-21 16:13 39.838432 -104.663989 77 5437ft 6kts
26-Jan-21 16:14 39.839464 -104.663732 1 5437ft 0kts
26-Jan-21 16:15 39.839464 -104.663732 1 5437ft 0kts
26-Jan-21 16:16 39.839464 -104.663732 1 5437ft 0kts
26-Jan-21 16:17 39.839464 -104.663732 1 5437ft 0kts
26-Jan-21 16:18 39.839788 -104.663711 9 5437ft 7kts
26-Jan-21 16:19 39.844036 -104.662509 0 5437ft 25kts
26-Jan-21 16:20 39.851103 -104.662416 359 5437ft 21kts
26-Jan-21 16:21 39.855825 -104.663538 0 5437ft 22kts
26-Jan-21 16:22 39.862831 -104.663443 0 5437ft 25kts
26-Jan-21 16:24 39.870061 -104.663397 0 5437ft 28kts
26-Jan-21 16:25 39.875918 -104.662150 2 5437ft 16kts
26-Jan-21 16:26 39.876596 -104.662132 0 5437ft 6kts
26-Jan-21 16:27 39.877443 -104.652861 90 5457ft 111kts
26-Jan-21 16:28 39.876293 -104.611097 92 7797ft 120kts
26-Jan-21 16:29 39.875408 -104.561744 91 9748ft 166kts
26-Jan-21 16:30 39.899423 -104.516450 359 11703ft 182kts
26-Jan-21 16:31 39.950452 -104.518613 357 13753ft 187kts
26-Jan-21 16:32 40.002768 -104.521031 356 15854ft 188kts
26-Jan-21 16:33 40.056321 -104.522849 354 17736ft 203kts
26-Jan-21 16:34 40.107129 -104.557841 329 19554ft 208kts
26-Jan-21 16:35 40.158907 -104.597671 330 20998ft 216kts
26-Jan-21 16:35 40.201991 -104.630770 330 21909ft 228kts
26-Jan-21 16:37 40.269065 -104.682434 329 22487ft 254kts
26-Jan-21 16:37 40.323113 -104.724148 329 23230ft 268kts
26-Jan-21 16:38 40.388892 -104.774990 329 23960ft 280kts
26-Jan-21 16:39 40.459688 -104.829876 329 23958ft 298kts
26-Jan-21 16:40 40.532392 -104.886364 329 23955ft 303kts
26-Jan-21 16:41 40.605916 -104.943632 329 23937ft 304kts
26-Jan-21 16:42 40.678012 -104.999942 329 23907ft 304kts
26-Jan-21 16:43 40.747743 -105.054532 329 23851ft 304kts
26-Jan-21 16:44 40.819741 -105.114599 327 23787ft 304kts
26-Jan-21 16:45 40.889509 -105.174038 327 23780ft 302kts
26-Jan-21 16:46 40.960111 -105.234360 327 23780ft 301kts
26-Jan-21 16:47 41.030770 -105.294869 327 23780ft 301kts
26-Jan-21 16:48 41.100905 -105.355103 327 23780ft 301kts
26-Jan-21 16:49 41.171390 -105.415775 326 23780ft 300kts
26-Jan-21 16:50 41.241580 -105.476350 326 23780ft 300kts
26-Jan-21 16:51 41.311759 -105.537100 326 23786ft 300kts
26-Jan-21 16:52 41.381352 -105.594542 335 23798ft 300kts
26-Jan-21 16:53 41.458146 -105.637625 336 23825ft 299kts
26-Jan-21 16:54 41.535024 -105.680477 336 23826ft 300kts
26-Jan-21 16:55 41.612043 -105.723497 335 23826ft 300kts
26-Jan-21 16:56 41.689670 -105.766996 335 23826ft 299kts
26-Jan-21 16:57 41.766620 -105.810214 335 23826ft 299kts
26-Jan-21 16:58 41.843249 -105.853365 335 23825ft 299kts
26-Jan-21 16:59 41.920283 -105.896860 335 23816ft 299kts
26-Jan-21 17:00 41.995673 -105.939536 335 23820ft 299kts
26-Jan-21 17:01 42.077597 -105.986073 335 21489ft 330kts
26-Jan-21 17:02 42.159421 -106.032618 336 19977ft 307kts
26-Jan-21 17:03 42.237216 -106.077020 336 18908ft 303kts
26-Jan-21 17:04 42.313065 -106.120425 336 17885ft 283kts
26-Jan-21 17:05 42.385616 -106.162025 335 16741ft 289kts
26-Jan-21 17:06 42.457268 -106.207704 313 15950ft 274kts
26-Jan-21 17:07 42.506239 -106.289095 309 14801ft 282kts
26-Jan-21 17:08 42.562762 -106.364000 313 13099ft 288kts
26-Jan-21 17:09 42.619407 -106.440593 315 11057ft 288kts
26-Jan-21 17:10 42.673202 -106.516279 318 9784ft 279kts
26-Jan-21 17:11 42.738792 -106.574290 332 8781ft 264kts
26-Jan-21 17:12 42.807767 -106.590614 24 8169ft 265kts
26-Jan-21 17:13 42.849786 -106.531972 44 6481ft 152kts
26-Jan-21 17:14 42.870590 -106.504616 45 5858ft 96kts
26-Jan-21 17:15 42.889665 -106.479816 46 5472ft 91kts
26-Jan-21 17:16 42.901324 -106.464389 86 5327ft 14kts

Navigation Log

Ident Type
Flight plan parsing failed, navigation log unavailable